Time;durP1;ratioP1;P1;durP2;ratioP2;P2;SDS_P1;SDS_P2;PMS_P1;PMS_P2;Temp;Humidity;BMP_temperature;BMP_pressure;BME280_temperature;BME280_humidity;BME280_pressure;Samples;Min_cycle;Max_cycle;Signal;HPM_P1;HPM_P2
2021/11/01 00:00:47;;;;;;;30.07;16.20;;;;;;;4.22;72.68;100270.69;1738624;80;22248;-57
2021/11/01 00:03:14;;;;;;;32.53;17.60;;;;;;;4.21;72.52;100271.59;1742403;80;21013;-57
2021/11/01 00:05:40;;;;;;;29.07;17.60;;;;;;;4.19;72.41;100264.49;1736141;80;21033;-58
2021/11/01 00:08:08;;;;;;;30.07;18.53;;;;;;;4.17;72.47;100272.06;1740407;80;20938;-57
2021/11/01 00:10:35;;;;;;;26.13;17.43;;;;;;;4.15;72.53;100263.24;1737160;80;21368;-57
2021/11/01 00:13:03;;;;;;;27.33;19.40;;;;;;;4.13;72.45;100263.26;1734813;80;21084;-59
2021/11/01 00:15:30;;;;;;;33.60;19.27;;;;;;;4.11;72.35;100258.39;1739306;80;21103;-58
2021/11/01 00:17:57;;;;;;;29.43;18.97;;;;;;;4.08;72.29;100256.25;1739807;80;21089;-58
2021/11/01 00:20:23;;;;;;;26.33;18.00;;;;;;;4.05;72.23;100257.61;1744322;80;21519;-57
2021/11/01 00:22:51;;;;;;;32.03;20.07;;;;;;;4.03;72.17;100255.41;1737728;80;21046;-59
2021/11/01 00:25:18;;;;;;;25.77;18.57;;;;;;;3.98;72.17;100254.16;1737550;80;21141;-58
2021/11/01 00:27:44;;;;;;;33.70;19.70;;;;;;;3.94;72.01;100247.54;1743751;80;21101;-56
2021/11/01 00:30:12;;;;;;;23.40;16.77;;;;;;;3.90;71.91;100247.17;1736250;80;21134;-57
2021/11/01 00:32:38;;;;;;;26.43;17.63;;;;;;;3.87;71.83;100243.20;1726557;80;21522;-58
2021/11/01 00:35:06;;;;;;;27.00;16.37;;;;;;;3.84;71.96;100238.79;1719996;82;21520;-57
2021/11/01 00:37:33;;;;;;;24.83;15.97;;;;;;;3.83;72.22;100238.35;1723149;80;20934;-56
2021/11/01 00:40:00;;;;;;;21.20;15.80;;;;;;;3.82;72.30;100236.63;1725901;81;21065;-56
2021/11/01 00:42:27;;;;;;;26.07;17.37;;;;;;;3.82;72.22;100239.73;1725849;82;21311;-56
2021/11/01 00:44:53;;;;;;;25.87;17.73;;;;;;;3.79;72.16;100240.20;1721375;82;21167;-56
2021/11/01 00:47:20;;;;;;;28.30;18.27;;;;;;;3.78;72.09;100233.10;1718703;82;21054;-57
2021/11/01 00:49:47;;;;;;;23.73;18.07;;;;;;;3.78;72.11;100239.76;1718426;81;21093;-58
2021/11/01 00:52:13;;;;;;;26.53;18.43;;;;;;;3.76;72.13;100231.35;1727039;82;20973;-56
2021/11/01 00:54:42;;;;;;;24.53;17.20;;;;;;;3.74;72.08;100239.35;1723739;81;20922;-57
2021/11/01 00:57:08;;;;;;;29.07;18.60;;;;;;;3.72;72.03;100232.31;1725415;82;21148;-58
2021/11/01 00:59:34;;;;;;;26.33;17.77;;;;;;;3.68;71.89;100229.24;1726487;82;20910;-58
2021/11/01 01:02:00;;;;;;;27.20;18.20;;;;;;;3.65;71.84;100226.64;1724198;82;20982;-58
2021/11/01 01:04:27;;;;;;;27.77;19.47;;;;;;;3.60;71.84;100222.69;1722679;82;21452;-56
2021/11/01 01:06:53;;;;;;;25.93;16.53;;;;;;;3.56;71.81;100226.75;1724802;80;21389;-55
2021/11/01 01:09:19;;;;;;;30.23;16.87;;;;;;;3.53;71.83;100217.02;1725035;82;21098;-54
2021/11/01 01:11:46;;;;;;;26.60;16.07;;;;;;;3.53;71.85;100222.78;1725744;82;21722;-55
2021/11/01 01:14:12;;;;;;;27.10;16.43;;;;;;;3.51;71.83;100224.58;1725590;82;20902;-55
2021/11/01 01:16:47;;;;;;;23.90;15.60;;;;;;;3.49;71.81;100215.27;1723053;82;21443;-57
2021/11/01 01:19:14;;;;;;;26.53;15.93;;;;;;;3.48;71.82;100209.55;1723326;82;20920;-58
2021/11/01 01:24:19;;;;;;;29.85;16.52;;;;;;;3.47;71.83;100213.55;1722859;82;20899;-56
2021/11/01 01:26:45;;;;;;;26.73;16.57;;;;;;;3.45;71.98;100204.25;1723323;82;20954;-57
2021/11/01 01:29:12;;;;;;;30.07;19.00;;;;;;;3.44;72.06;100202.48;1728928;82;20899;-57
2021/11/01 01:31:41;;;;;;;25.83;16.60;;;;;;;3.42;72.02;100198.95;1725472;82;20950;-54
2021/11/01 01:34:06;;;;;;;31.37;19.73;;;;;;;3.40;72.07;100198.12;1724909;82;21082;-58
2021/11/01 01:36:32;;;;;;;28.63;19.63;;;;;;;3.39;72.15;100193.24;1723773;80;20868;-55
2021/11/01 01:38:59;;;;;;;30.67;20.23;;;;;;;3.36;72.19;100187.95;1725771;82;20923;-55
2021/11/01 01:41:27;;;;;;;33.10;19.87;;;;;;;3.34;72.64;100196.39;1722774;82;21089;-54
2021/11/01 01:43:57;;;;;;;29.20;20.40;;;;;;;3.34;72.98;100192.84;1724714;82;20879;-55
2021/11/01 01:46:25;;;;;;;33.73;21.07;;;;;;;3.35;73.35;100189.30;1720646;80;21072;-55
2021/11/01 01:48:53;;;;;;;30.17;20.00;;;;;;;3.37;73.94;100187.50;1726298;82;21002;-54
2021/11/01 01:51:22;;;;;;;32.70;20.47;;;;;;;3.40;74.43;100188.33;1720670;80;21070;-57
2021/11/01 01:53:50;;;;;;;33.30;20.83;;;;;;;3.45;74.90;100188.73;1718092;82;21052;-57
2021/11/01 01:56:17;;;;;;;33.70;20.17;;;;;;;3.48;75.32;100186.92;1725807;81;21466;-55
2021/11/01 01:58:50;;;;;;;36.70;22.50;;;;;;;3.53;75.69;100194.84;1724258;82;21104;-54
2021/11/01 02:01:17;;;;;;;37.03;22.00;;;;;;;3.57;76.03;100191.25;1726021;82;21069;-56
2021/11/01 02:03:46;;;;;;;34.40;22.97;;;;;;;3.60;76.28;100184.09;1726988;82;20990;-54
2021/11/01 02:06:50;;;;;;;34.77;23.50;;;;;;;3.64;76.55;100183.61;1724439;82;21065;-54
2021/11/01 02:09:21;;;;;;;33.17;21.90;;;;;;;3.66;76.68;100181.34;1726259;81;21124;-55
2021/11/01 02:11:58;;;;;;;41.63;25.07;;;;;;;3.68;76.91;100183.98;1720937;82;21216;-55
2021/11/01 02:14:28;;;;;;;35.30;23.00;;;;;;;3.69;77.07;100187.08;1724999;82;21105;-54
2021/11/01 02:16:54;;;;;;;32.20;21.00;;;;;;;3.70;77.12;100176.41;1723944;82;22423;-54
2021/11/01 02:19:27;;;;;;;31.63;19.83;;;;;;;3.71;77.10;100171.97;1722063;80;21113;-55
2021/11/01 02:22:00;;;;;;;29.00;19.47;;;;;;;3.72;77.17;100169.74;1727211;82;21036;-54
2021/11/01 02:24:44;;;;;;;32.17;20.43;;;;;;;3.73;77.29;100168.40;1722303;82;21127;-54
2021/11/01 02:27:12;;;;;;;32.00;19.10;;;;;;;3.76;77.52;100170.99;1725720;82;21045;-56
2021/11/01 02:29:42;;;;;;;34.20;20.60;;;;;;;3.80;77.62;100170.06;1725410;82;21077;-54
2021/11/01 02:32:10;;;;;;;30.60;20.73;;;;;;;3.83;77.72;100165.13;1719602;82;21064;-55
2021/11/01 02:34:36;;;;;;;33.30;19.97;;;;;;;3.84;77.70;100168.67;1724870;82;21091;-56
2021/11/01 02:37:03;;;;;;;36.37;23.13;;;;;;;3.86;77.63;100166.87;1721450;80;21093;-54
2021/11/01 02:39:32;;;;;;;32.27;21.43;;;;;;;3.87;77.55;100162.86;1722879;80;21499;-54
2021/11/01 02:41:59;;;;;;;35.47;23.93;;;;;;;3.87;77.57;100157.98;1724436;82;21093;-57
2021/11/01 02:44:28;;;;;;;35.23;23.67;;;;;;;3.86;77.65;100153.11;1724284;82;21748;-55
2021/11/01 02:46:55;;;;;;;35.60;22.77;;;;;;;3.85;77.68;100150.46;1727084;80;20919;-58
2021/11/01 02:49:23;;;;;;;34.77;22.90;;;;;;;3.84;77.72;100153.58;1728714;82;21074;-57
2021/11/01 02:51:49;;;;;;;29.73;21.00;;;;;;;3.85;77.69;100152.67;1724148;82;21085;-57
2021/11/01 02:54:16;;;;;;;34.53;21.43;;;;;;;3.85;77.68;100153.13;1723512;81;20965;-56
2021/11/01 02:56:44;;;;;;;26.47;19.50;;;;;;;3.84;77.76;100149.58;1722730;81;21347;-57
2021/11/01 02:59:11;;;;;;;28.83;18.97;;;;;;;3.84;77.79;100146.91;1722143;82;22564;-57
2021/11/01 03:01:37;;;;;;;30.13;21.63;;;;;;;3.85;77.83;100148.68;1721208;82;21132;-57
2021/11/01 03:04:04;;;;;;;36.17;22.00;;;;;;;3.87;77.84;100144.67;1722447;81;21081;-57
2021/11/01 03:06:30;;;;;;;30.27;21.80;;;;;;;3.88;77.88;100145.98;1724213;82;21152;-57
2021/11/01 03:08:56;;;;;;;32.67;21.73;;;;;;;3.87;77.87;100144.22;1721473;82;21057;-57
2021/11/01 03:11:24;;;;;;;32.83;23.13;;;;;;;3.87;77.84;100148.66;1721439;82;21061;-57
2021/11/01 03:13:51;;;;;;;38.30;25.03;;;;;;;3.84;77.79;100149.58;1725028;82;21498;-56
2021/11/01 03:16:17;;;;;;;35.60;24.93;;;;;;;3.80;77.78;100144.77;1718667;82;21476;-56
2021/11/01 03:18:53;;;;;;;37.10;25.90;;;;;;;3.79;77.85;100144.78;1723940;82;21176;-57
2021/11/01 03:21:20;;;;;;;33.77;23.77;;;;;;;3.76;77.85;100147.03;1719786;82;21145;-57
2021/11/01 03:23:48;;;;;;;33.80;22.97;;;;;;;3.77;77.88;100146.13;1720842;80;21099;-57
2021/11/01 03:26:20;;;;;;;32.80;22.77;;;;;;;3.75;77.81;100139.94;1722224;82;21144;-57
2021/11/01 03:28:52;;;;;;;33.40;23.47;;;;;;;3.75;77.76;100143.94;1707885;82;21076;-57
2021/11/01 03:31:22;;;;;;;37.70;23.83;;;;;;;3.74;77.73;100138.66;1719927;82;21054;-56
2021/11/01 03:33:50;;;;;;;33.07;21.33;;;;;;;3.73;77.82;100136.89;1720700;80;21100;-57
2021/11/01 03:36:16;;;;;;;36.47;22.93;;;;;;;3.74;77.86;100132.85;1723482;81;21677;-57
2021/11/01 03:38:43;;;;;;;34.77;22.43;;;;;;;3.73;77.79;100130.23;1719279;82;21125;-56
2021/11/01 03:41:11;;;;;;;36.93;23.30;;;;;;;3.71;77.85;100128.92;1720718;82;21062;-57
2021/11/01 03:44:02;;;;;;;36.33;26.33;;;;;;;3.72;77.89;100128.47;1724224;81;21374;-56
2021/11/01 03:46:24;;;;;;;38.63;25.23;;;;;;;3.72;77.83;100125.81;1722330;82;21828;-57
2021/11/01 03:48:46;;;;;;;36.90;25.27;;;;;;;3.70;77.83;100124.50;1721948;82;21112;-57
2021/11/01 03:51:26;;;;;;;41.97;26.57;;;;;;;3.67;77.86;100127.19;1722518;80;21085;-57
2021/11/01 03:53:41;;;;;;;36.87;25.50;;;;;;;3.66;77.89;100132.08;1717993;82;21140;-57
2021/11/01 03:56:08;;;;;;;32.53;23.93;;;;;;;3.66;77.90;100126.76;1726514;82;21479;-57
2021/11/01 03:58:35;;;;;;;34.63;23.47;;;;;;;3.64;77.93;100123.27;1722667;81;20986;-57
2021/11/01 04:01:01;;;;;;;36.03;23.73;;;;;;;3.63;77.93;100121.50;1728121;82;21057;-57
2021/11/01 04:03:28;;;;;;;37.77;24.87;;;;;;;3.64;77.99;100117.94;1731022;80;21091;-57
2021/11/01 04:06:02;;;;;;;38.03;25.23;;;;;;;3.67;78.12;100118.33;1725052;80;20906;-57
2021/11/01 04:08:22;;;;;;;45.70;28.73;;;;;;;3.68;78.25;100111.66;1721669;82;21460;-57
2021/11/01 04:10:50;;;;;;;41.83;25.23;;;;;;;3.72;78.32;100108.51;1722815;82;20911;-57
2021/11/01 04:13:16;;;;;;;41.87;27.03;;;;;;;3.72;78.46;100105.39;1723510;82;21005;-57
2021/11/01 04:15:48;;;;;;;42.93;29.40;;;;;;;3.72;78.54;100101.41;1726103;81;21535;-57
2021/11/01 04:18:17;;;;;;;41.90;27.53;;;;;;;3.73;78.70;100107.16;1724162;82;20958;-57
2021/11/01 04:20:52;;;;;;;52.40;29.43;;;;;;;3.72;78.78;100099.19;1725871;82;21009;-57
2021/11/01 04:23:18;;;;;;;47.17;26.60;;;;;;;3.69;78.91;100100.10;1722654;80;21444;-57
2021/11/01 04:25:45;;;;;;;34.13;23.30;;;;;;;3.67;79.00;100097.91;1721874;80;20895;-56
2021/11/01 04:28:11;;;;;;;30.13;23.10;;;;;;;3.64;79.19;100100.64;1728876;82;22307;-56
2021/11/01 04:30:39;;;;;;;26.70;20.87;;;;;;;3.62;79.33;100101.10;1723470;82;20930;-57
2021/11/01 04:33:10;;;;;;;36.53;22.83;;;;;;;3.62;79.46;100099.77;1724291;82;20931;-57
2021/11/01 04:35:38;;;;;;;35.10;23.57;;;;;;;3.61;79.45;100098.45;1723571;82;21379;-57
2021/11/01 04:38:17;;;;;;;30.97;20.73;;;;;;;3.58;79.56;100108.69;1723885;82;21023;-57
2021/11/01 04:40:48;;;;;;;29.30;22.23;;;;;;;3.55;79.66;100101.22;1727704;82;21808;-57
2021/11/01 04:53:55;;;;;;;30.25;20.50;;;;;;;3.40;79.99;100100.51;1723086;82;21097;-56
2021/11/01 04:56:25;;;;;;;26.00;19.90;;;;;;;3.39;80.08;100100.56;1722534;82;21073;-57
2021/11/01 04:58:53;;;;;;;26.97;18.53;;;;;;;3.37;80.16;100103.23;1723615;80;21268;-57
2021/11/01 05:01:23;;;;;;;29.50;19.97;;;;;;;3.35;80.21;100088.18;1725113;82;20982;-57
2021/11/01 05:03:53;;;;;;;29.33;20.20;;;;;;;3.34;80.29;100095.73;1727327;82;21077;-57
2021/11/01 05:06:26;;;;;;;28.93;20.73;;;;;;;3.34;80.32;100095.73;1720587;80;21198;-56
2021/11/01 05:08:56;;;;;;;30.20;21.03;;;;;;;3.33;80.37;100093.52;1717504;82;21467;-57
2021/11/01 05:11:30;;;;;;;29.80;20.27;;;;;;;3.32;80.29;100089.54;1721767;82;21073;-56
2021/11/01 05:13:52;;;;;;;34.23;21.27;;;;;;;3.28;80.31;100093.16;1726284;82;21113;-57
2021/11/01 05:16:30;;;;;;;31.43;22.57;;;;;;;3.24;80.38;100100.73;1721982;80;21120;-56
2021/11/01 05:19:00;;;;;;;29.03;20.00;;;;;;;3.19;80.40;100088.84;1722114;82;21080;-57
2021/11/01 05:21:29;;;;;;;34.00;19.43;;;;;;;3.18;80.45;100089.73;1717643;82;21432;-56
2021/11/01 05:23:56;;;;;;;28.40;21.07;;;;;;;3.18;80.52;100088.86;1723346;82;21070;-56
2021/11/01 05:26:30;;;;;;;24.37;18.97;;;;;;;3.15;80.53;100089.77;1719479;82;21595;-56
2021/11/01 05:28:53;;;;;;;28.07;18.43;;;;;;;3.16;80.56;100086.20;1722895;82;21045;-56
2021/11/01 05:31:25;;;;;;;23.57;18.63;;;;;;;3.18;80.66;100088.86;1724636;82;21488;-57
2021/11/01 05:34:11;;;;;;;27.82;20.12;;;;;;;3.21;80.70;100094.15;1721753;82;21133;-56
2021/11/01 05:36:37;;;;;;;28.33;19.77;;;;;;;3.21;80.68;100088.37;1719910;82;21070;-56
2021/11/01 05:39:05;;;;;;;30.57;20.40;;;;;;;3.21;80.67;100097.69;1721051;82;21049;-56
2021/11/01 05:41:31;;;;;;;29.20;19.87;;;;;;;3.21;80.68;100103.45;1720180;82;21104;-56
2021/11/01 05:43:57;;;;;;;25.73;20.70;;;;;;;3.19;80.61;100099.48;1719096;82;21098;-56
2021/11/01 05:46:31;;;;;;;28.73;20.83;;;;;;;3.17;80.63;100101.72;1724410;82;21030;-56
2021/11/01 05:48:54;;;;;;;26.47;19.33;;;;;;;3.15;80.65;100108.38;1721313;82;21494;-56
2021/11/01 05:51:21;;;;;;;28.63;20.10;;;;;;;3.14;80.70;100111.09;1722414;82;21089;-56
2021/11/01 05:53:52;;;;;;;29.97;19.30;;;;;;;3.12;80.79;100106.23;1720180;82;21093;-56
2021/11/01 06:09:46;;;;;;;25.48;19.48;;;;;;;3.34;81.13;100105.05;1719225;80;21107;-57
2021/11/01 06:14:29;;;;;;;34.95;21.10;;;;;;;3.39;81.08;100111.20;1721592;82;21006;-56
2021/11/01 06:16:56;;;;;;;37.63;23.10;;;;;;;3.39;81.08;100103.22;1721634;82;22129;-56
2021/11/01 06:19:23;;;;;;;27.47;20.90;;;;;;;3.39;81.07;100103.22;1726613;80;20946;-56
2021/11/01 06:21:49;;;;;;;30.23;21.20;;;;;;;3.39;81.04;100103.22;1724246;80;21413;-57
2021/11/01 06:27:00;;;;;;;;;;;;;;;3.43;81.13;100107.58;1726849;82;21122;-56
2021/11/01 06:29:34;;;;;;;26.63;18.53;;;;;;;3.49;81.16;100108.81;1720691;80;20770;-56
2021/11/01 06:32:08;;;;;;;28.87;19.20;;;;;;;3.54;81.28;100102.11;1721061;80;21024;-56
2021/11/01 06:42:40;;;;;;;28.07;19.82;;;;;;;3.87;81.05;100102.94;1723682;82;21528;-56
2021/11/01 06:45:20;;;;;;;32.23;21.37;;;;;;;3.93;80.95;100105.50;1721208;82;21524;-56
2021/11/01 06:50:56;;;;;;;33.35;22.60;;;;;;;4.03;80.74;100102.23;1724889;82;20890;-56
2021/11/01 06:56:03;;;;;;;32.70;22.10;;;;;;;4.08;80.50;100097.25;1708371;82;20875;-56
2021/11/01 07:14:50;;;;;;;33.58;22.55;;;;;;;4.63;80.31;100098.96;1712913;82;21993;-57
2021/11/01 07:17:16;;;;;;;29.57;21.63;;;;;;;4.70;80.29;100104.59;1711808;82;20976;-57
2021/11/01 07:25:03;;;;;;;33.28;23.32;;;;;;;4.92;80.37;100099.75;1710557;81;21316;-56
2021/11/01 08:38:08;;;;;;;41.60;26.60;;;;;;;6.68;75.86;100020.71;1689583;82;21042;-58
2021/11/01 08:45:52;;;;;;;38.03;26.90;;;;;;;6.80;75.60;100025.69;1656601;82;21018;-56
2021/11/01 09:04:31;;;;;;;36.00;26.47;;;;;;;7.39;74.91;100005.66;1715274;82;20630;-58
2021/11/01 09:07:17;;;;;;;41.43;28.73;;;;;;;7.44;74.78;99999.68;1711556;82;21124;-58
2021/11/01 09:20:21;;;;;;;43.33;28.13;;;;;;;7.83;74.28;99988.13;1717457;82;21535;-57
2021/11/01 09:28:24;;;;;;;41.90;30.02;;;;;;;8.11;73.60;99973.33;1718689;80;21755;-56
2021/11/01 09:39:02;;;;;;;;;;;;;;;8.38;72.20;99966.61;1669997;84;21186;-57
2021/11/01 09:41:26;;;;;;;39.03;27.37;;;;;;;8.43;71.96;99965.97;1672554;84;21182;-58
2021/11/01 09:43:57;;;;;;;39.03;28.00;;;;;;;8.48;71.90;99957.31;1671681;84;21064;-58
2021/11/01 09:46:22;;;;;;;47.10;30.23;;;;;;;8.57;71.73;99952.95;1660828;84;21084;-58
2021/11/01 09:49:14;;;;;;;39.92;29.32;;;;;;;8.65;71.53;99953.08;1671441;84;20918;-58
2021/11/01 09:51:34;;;;;;;41.58;29.27;;;;;;;8.75;71.35;99948.71;1669078;83;21085;-58
2021/11/01 09:54:00;;;;;;;42.67;29.45;;;;;;;8.85;71.23;99944.25;1667284;84;21124;-58
2021/11/01 09:56:41;;;;;;;44.50;32.38;;;;;;;8.94;70.89;99946.59;1669631;84;21137;-57
2021/11/01 09:59:14;;;;;;;49.55;32.10;;;;;;;9.02;70.56;99936.42;1668957;84;21105;-57
2021/11/01 10:01:45;;;;;;;42.08;30.62;;;;;;;9.10;70.32;99935.66;1671156;84;20942;-57
2021/11/01 10:04:15;;;;;;;42.23;30.90;;;;;;;9.18;70.08;99942.56;1669487;84;20958;-58
2021/11/01 10:06:43;;;;;;;42.78;29.60;;;;;;;9.25;69.74;99937.34;1672866;84;21173;-58
2021/11/01 10:09:14;;;;;;;48.20;31.97;;;;;;;9.32;69.68;99925.41;1672430;84;20951;-58
2021/11/01 10:11:44;;;;;;;44.10;31.68;;;;;;;9.38;69.41;99917.98;1671187;84;20955;-58
2021/11/01 10:14:11;;;;;;;47.98;31.00;;;;;;;9.44;69.13;99916.87;1672417;84;21046;-58
2021/11/01 10:19:41;;;;;;;43.10;30.77;;;;;;;9.51;68.80;99914.34;1671882;84;21036;-59
2021/11/01 10:22:19;;;;;;;41.13;30.32;;;;;;;9.51;68.51;99914.34;1680651;83;20963;-59
2021/11/01 10:24:41;;;;;;;41.18;28.62;;;;;;;9.52;68.60;99913.41;1656460;84;20954;-58
2021/11/01 10:27:14;;;;;;;36.85;27.98;;;;;;;9.56;68.65;99909.63;1677832;84;21066;-58
2021/11/01 10:30:00;;;;;;;43.65;29.25;;;;;;;9.61;68.52;99908.95;1671889;84;21101;-59
2021/11/01 10:32:31;;;;;;;45.55;31.37;;;;;;;9.64;68.53;99907.50;1673893;84;21829;-58
2021/11/01 10:35:21;;;;;;;37.13;29.90;;;;;;;9.68;68.54;99901.07;1669291;84;21629;-58
2021/11/01 10:41:00;;;;;;;39.00;28.92;;;;;;;9.77;68.46;99898.46;1671796;84;20990;-58
2021/11/01 11:11:33;;;;;;;37.58;25.37;;;;;;;10.21;67.75;99866.94;1670155;84;21141;-58
2021/11/01 11:19:41;;;;;;;36.77;27.45;;;;;;;10.26;67.76;99851.48;1670215;83;21097;-58
2021/11/01 11:24:58;;;;;;;36.30;25.13;;;;;;;10.38;67.67;99850.06;1671063;84;20244;-59
2021/11/01 11:47:46;;;;;;;34.70;23.40;;;;;;;10.48;67.43;99826.67;1673355;84;21512;-58
2021/11/01 11:50:20;;;;;;;37.70;23.57;;;;;;;10.56;67.36;99820.45;1670384;84;21097;-58
2021/11/01 11:52:47;;;;;;;35.23;24.40;;;;;;;10.62;67.15;99817.97;1672973;84;21052;-58
2021/11/01 11:55:20;;;;;;;31.68;24.87;;;;;;;10.67;66.93;99819.08;1691400;83;21125;-58
2021/11/01 11:57:57;;;;;;;35.03;22.93;;;;;;;10.69;66.81;99810.47;1692212;83;21115;-58
2021/11/01 12:00:27;;;;;;;29.57;22.13;;;;;;;10.72;66.61;99807.64;1689206;83;21428;-58
2021/11/01 12:02:55;;;;;;;27.65;21.27;;;;;;;10.72;66.48;99804.95;1678938;84;21506;-59
2021/11/01 12:08:31;;;;;;;29.97;20.43;;;;;;;10.76;66.38;99799.33;1788023;78;23148;-57
2021/11/01 12:19:02;;;;;;;38.78;29.10;;;;;;;10.82;65.92;99788.73;1764733;80;21084;-58
2021/11/01 12:21:28;;;;;;;27.65;21.60;;;;;;;10.84;65.86;99789.53;1769280;80;21385;-60
2021/11/01 12:23:55;;;;;;;33.13;22.80;;;;;;;10.87;65.68;99771.89;1742921;80;21263;-58
2021/11/01 12:26:23;;;;;;;25.40;20.62;;;;;;;10.86;65.54;99788.52;1764823;80;21594;-58
2021/11/01 12:28:55;;;;;;;32.93;23.07;;;;;;;10.85;65.59;99773.30;1766219;79;20998;-59
2021/11/01 12:31:22;;;;;;;28.30;19.87;;;;;;;10.86;65.56;99772.83;1760163;80;20941;-58
2021/11/01 12:36:32;;;;;;;27.40;20.62;;;;;;;10.86;65.55;99775.53;1730707;81;21116;-58
2021/11/01 12:38:56;;;;;;;27.58;19.87;;;;;;;10.85;65.58;99771.08;1729680;81;22333;-57
2021/11/01 12:41:30;;;;;;;30.05;21.65;;;;;;;10.85;65.43;99773.30;1728147;81;21722;-58
2021/11/01 12:45:10;;;;;;;33.23;23.12;;;;;;;10.85;65.47;99766.57;1728643;81;21776;-58
2021/11/01 12:57:30;;;;;;;30.62;20.55;;;;;;;10.88;65.35;99763.74;1723940;81;20200;-57
2021/11/01 12:59:57;;;;;;;31.35;22.52;;;;;;;10.84;65.42;99763.95;1707428;81;20950;-57
2021/11/01 13:02:30;;;;;;;28.80;22.65;;;;;;;10.81;65.51;99766.31;1728115;81;20888;-58
2021/11/01 13:05:00;;;;;;;27.42;20.17;;;;;;;10.77;65.58;99767.42;1732148;81;21846;-58
2021/11/01 13:07:47;;;;;;;29.90;19.85;;;;;;;10.75;65.61;99769.78;1735150;81;20934;-59
2021/11/01 13:18:05;;;;;;;29.42;19.20;;;;;;;10.63;65.76;99762.69;1740781;81;20923;-58
2021/11/01 13:20:22;;;;;;;30.45;21.35;;;;;;;10.61;65.81;99758.34;1738049;81;21629;-56
2021/11/01 13:22:54;;;;;;;26.10;19.40;;;;;;;10.59;65.82;99750.81;1740422;81;20946;-57
2021/11/01 13:28:32;;;;;;;28.32;19.65;;;;;;;10.53;66.01;99739.88;1735649;81;21335;-57
2021/11/01 13:38:45;;;;;;;21.50;14.90;;;;;;;10.36;66.38;99741.16;1740621;81;20448;-58
2021/11/01 13:41:15;;;;;;;23.02;17.52;;;;;;;10.31;66.44;99740.48;1737535;81;20895;-58
2021/11/01 13:43:41;;;;;;;20.05;14.98;;;;;;;10.28;66.50;99733.92;1739649;81;22187;-58
2021/11/01 13:46:08;;;;;;;19.48;15.53;;;;;;;10.24;66.53;99736.34;1704858;83;20950;-58
2021/11/01 13:48:35;;;;;;;22.93;17.17;;;;;;;10.21;66.55;99733.79;1740683;81;21075;-59
2021/11/01 13:51:08;;;;;;;25.90;17.80;;;;;;;10.18;66.53;99723.19;1734594;81;21057;-57
2021/11/01 13:53:46;;;;;;;24.80;20.20;;;;;;;10.14;66.57;99734.52;1734662;81;21319;-59
2021/11/01 13:56:24;;;;;;;21.42;16.97;;;;;;;10.10;66.61;99731.59;1736947;81;21508;-58
2021/11/01 13:59:06;;;;;;;26.90;17.25;;;;;;;10.05;66.70;99733.60;1738052;81;20903;-58
2021/11/01 14:28:20;;;;;;;24.52;20.30;;;;;;;9.52;68.29;99730.68;1734644;81;21579;-58
2021/11/01 14:31:15;;;;;;;30.40;18.65;;;;;;;9.45;68.39;99726.48;1732668;81;21053;-58
2021/11/01 14:33:52;;;;;;;27.70;19.35;;;;;;;9.40;68.53;99721.80;1733543;81;21108;-59
2021/11/01 14:36:22;;;;;;;29.50;18.20;;;;;;;9.35;68.65;99727.86;1728142;81;21579;-59
2021/11/01 15:14:09;;;;;;;23.47;18.92;;;;;;;8.78;70.75;99716.41;1715272;82;21662;-59
2021/11/01 15:21:52;;;;;;;30.85;21.70;;;;;;;8.70;71.11;99726.13;1717614;82;21149;-59
2021/11/01 15:26:56;;;;;;;25.97;20.48;;;;;;;8.59;71.42;99729.23;1711770;82;21143;-58
2021/11/01 15:32:31;;;;;;;33.15;22.93;;;;;;;8.50;71.80;99739.50;1719563;82;21030;-58
2021/11/01 16:20:09;;;;;;;32.90;22.17;;;;;;;8.02;74.57;99744.44;1736304;81;21094;-58
2021/11/01 16:22:38;;;;;;;33.73;24.72;;;;;;;7.97;74.67;99743.76;1732719;81;21127;-57
2021/11/01 16:25:05;;;;;;;28.52;21.37;;;;;;;7.92;74.75;99751.08;1737096;81;21054;-58
2021/11/01 16:27:33;;;;;;;28.33;21.40;;;;;;;7.89;74.84;99751.21;1737511;81;21786;-58
2021/11/01 16:30:15;;;;;;;28.15;19.25;;;;;;;7.86;74.93;99744.62;1736995;81;21380;-58
2021/11/01 16:34:59;;;;;;;33.63;21.12;;;;;;;7.84;75.17;99747.34;1736239;81;21512;-58
2021/11/01 16:40:07;;;;;;;36.73;19.90;;;;;;;7.88;75.47;99752.14;1741071;81;20957;-57
2021/11/01 16:42:36;;;;;;;29.10;20.43;;;;;;;7.90;75.58;99748.48;1737058;81;20895;-58
2021/11/01 16:45:17;;;;;;;30.12;21.90;;;;;;;7.93;75.67;99747.47;1739149;81;20895;-58
2021/11/01 16:47:45;;;;;;;29.82;22.20;;;;;;;7.93;75.75;99753.70;1736222;81;21856;-58
2021/11/01 16:50:12;;;;;;;33.30;24.15;;;;;;;7.93;75.87;99751.48;1738263;81;21058;-59
2021/11/01 16:52:40;;;;;;;32.30;23.57;;;;;;;7.93;75.93;99750.15;1737810;81;21081;-59
2021/11/01 16:55:15;;;;;;;29.95;21.02;;;;;;;7.93;76.00;99749.69;1736130;81;21081;-59
2021/11/01 16:57:46;;;;;;;27.62;20.25;;;;;;;7.93;76.07;99752.36;1673425;85;21060;-58
2021/11/01 17:00:18;;;;;;;25.05;20.40;;;;;;;7.95;76.14;99743.81;1732271;81;21136;-58
2021/11/01 17:02:46;;;;;;;25.50;19.67;;;;;;;7.95;76.20;99747.83;1736087;81;21121;-58
2021/11/01 17:21:43;;;;;;;29.00;18.87;;;;;;;8.04;76.33;99731.86;1734094;81;21065;-58
2021/11/01 18:43:59;;;;;;;30.62;21.93;;;;;;;7.99;76.77;99673.05;1707779;82;22500;-57
2021/11/01 18:51:35;;;;;;;36.45;27.77;;;;;;;7.99;76.73;99666.84;1705485;82;21633;-58
2021/11/01 18:54:24;;;;;;;36.08;23.77;;;;;;;7.98;76.74;99663.30;1707795;82;21021;-58
2021/11/01 18:56:54;;;;;;;29.85;21.45;;;;;;;7.97;76.75;99664.69;1707818;82;21124;-58
2021/11/01 18:59:23;;;;;;;28.10;21.83;;;;;;;7.96;76.77;99663.81;1708778;82;21444;-58
2021/11/01 19:02:41;;;;;;;33.40;22.37;;;;;;;7.95;76.82;99661.19;1706454;82;22224;-58
2021/11/01 19:04:33;;;;;;;31.37;22.07;;;;;;;7.95;76.88;99662.53;1688841;82;21052;-58
2021/11/01 19:07:05;;;;;;;30.50;21.00;;;;;;;7.97;76.85;99655.30;1706500;81;20949;-58
2021/11/01 20:07:23;;;;;;;31.30;22.27;;;;;;;7.85;77.01;99614.23;1726358;82;20986;-58
2021/11/01 20:12:30;;;;;;;35.67;24.37;;;;;;;7.82;76.96;99631.80;1737387;81;21061;-58
2021/11/01 21:26:22;;;;;;;46.00;28.37;;;;;;;7.31;77.23;99570.38;1736860;81;21077;-59
2021/11/01 21:28:50;;;;;;;42.90;27.50;;;;;;;7.30;77.24;99564.15;1734036;81;21097;-58
2021/11/01 21:31:17;;;;;;;42.37;28.60;;;;;;;7.32;77.26;99560.05;1734131;81;21707;-58
2021/11/01 21:33:45;;;;;;;42.83;30.03;;;;;;;7.33;77.18;99560.45;1735512;81;21140;-58
2021/11/01 21:36:16;;;;;;;46.17;31.53;;;;;;;7.33;77.17;99561.33;1736592;81;21026;-58
2021/11/01 21:38:40;;;;;;;47.40;32.97;;;;;;;7.32;77.10;99560.92;1732435;81;21097;-58
2021/11/01 21:41:06;;;;;;;48.30;33.60;;;;;;;7.31;77.05;99561.01;1735510;81;21097;-59
2021/11/01 21:43:33;;;;;;;47.10;33.37;;;;;;;7.30;77.01;99563.27;1733838;81;21784;-58
2021/11/01 21:45:59;;;;;;;51.20;33.83;;;;;;;7.23;76.95;99563.48;1738275;81;21642;-58
2021/11/01 21:48:26;;;;;;;44.73;31.20;;;;;;;7.21;76.96;99566.70;1736446;81;21037;-58
2021/11/01 21:50:54;;;;;;;49.60;32.93;;;;;;;7.20;76.95;99558.27;1737447;81;21062;-58
2021/11/01 21:53:22;;;;;;;44.77;31.53;;;;;;;7.19;76.96;99556.98;1734384;81;21037;-58
2021/11/01 21:55:48;;;;;;;48.47;32.20;;;;;;;7.19;76.96;99561.88;1736821;81;21523;-58
2021/11/01 22:20:07;;;;;;;43.65;29.77;;;;;;;6.96;76.63;99532.42;1715367;83;22317;-58
2021/11/01 22:25:09;;;;;;;44.43;32.77;;;;;;;6.94;76.68;99528.92;1713642;83;21114;-57
2021/11/01 22:41:00;;;;;;;51.67;35.13;;;;;;;6.84;76.64;99525.70;1717375;83;20971;-58
2021/11/01 22:46:15;;;;;;;49.57;34.57;;;;;;;6.83;76.71;99524.42;1717743;83;21595;-58
2021/11/01 22:48:43;;;;;;;50.27;35.77;;;;;;;6.83;76.76;99519.06;1710736;83;22524;-57
2021/11/01 22:56:55;;;;;;;55.17;37.85;;;;;;;6.81;76.76;99504.87;1736973;81;20974;-58
2021/11/01 22:59:08;;;;;;;54.38;39.78;;;;;;;6.76;76.78;99502.38;1705316;81;20943;-58
2021/11/01 23:01:40;;;;;;;49.73;37.00;;;;;;;6.73;76.82;99510.96;1735339;81;21148;-58